Time;durP1;ratioP1;P1;durP2;ratioP2;P2;SDS_P1;SDS_P2;PMS_P1;PMS_P2;Temp;Humidity;BMP_temperature;BMP_pressure;BME280_temperature;BME280_humidity;BME280_pressure;Samples;Min_cycle;Max_cycle;Signal;HPM_P1;HPM_P2
2023/08/14 00:01:01;;;;;;;6.15;4.47;;;;;;;;;;4976485;28;20038;-50
2023/08/14 00:03:26;;;;;;;8.75;4.20;;;;;;;;;;4995413;28;20026;-51
2023/08/14 00:05:52;;;;;;;4.60;4.05;;;;;;;;;;4991613;28;20053;-48
2023/08/14 00:08:19;;;;;;;5.50;3.88;;;;;;;;;;4993728;28;20034;-48
2023/08/14 00:10:45;;;;;;;6.43;4.63;;;;;;;;;;4995236;28;20158;-52
2023/08/14 00:13:11;;;;;;;7.95;4.45;;;;;;;;;;4998300;28;20042;-48
2023/08/14 00:15:37;;;;;;;6.10;4.22;;;;;;;;;;4995794;28;20680;-48
2023/08/14 00:18:03;;;;;;;6.85;4.22;;;;;;;;;;4996875;28;20113;-48
2023/08/14 00:20:28;;;;;;;4.57;4.10;;;;;;;;;;4997986;28;20049;-47
2023/08/14 00:22:54;;;;;;;5.50;4.47;;;;;;;;;;4995826;28;20053;-49
2023/08/14 00:25:19;;;;;;;6.88;4.13;;;;;;;;;;4964058;28;20046;-49
2023/08/14 00:27:44;;;;;;;7.40;4.28;;;;;;;;;;4978489;28;20026;-49
2023/08/14 00:30:10;;;;;;;5.88;4.35;;;;;;;;;;4976437;28;20063;-51
2023/08/14 00:32:35;;;;;;;5.75;4.45;;;;;;;;;;5005270;28;20066;-49
2023/08/14 00:35:02;;;;;;;6.28;4.50;;;;;;;;;;4994177;28;20129;-50
2023/08/14 00:37:48;;;;;;;9.98;4.82;;;;;;;;;;4997557;28;20094;-49
2023/08/14 00:40:15;;;;;;;6.93;4.55;;;;;;;;;;4986641;28;20038;-46
2023/08/14 00:42:47;;;;;;;4.97;4.47;;;;;;;;;;4993702;28;20042;-50
2023/08/14 00:45:13;;;;;;;8.63;4.43;;;;;;;;;;4985476;28;20046;-53
2023/08/14 00:47:41;;;;;;;5.35;4.85;;;;;;;;;;4998157;28;20073;-47
2023/08/14 00:50:08;;;;;;;7.22;4.88;;;;;;;;;;4988313;28;20035;-47
2023/08/14 00:52:42;;;;;;;5.68;4.60;;;;;;;;;;4996996;28;20117;-48
2023/08/14 00:55:22;;;;;;;5.45;4.40;;;;;;;;;;4996810;28;20051;-50
2023/08/14 00:57:49;;;;;;;6.85;4.53;;;;;;;;;;4999210;28;20034;-46
2023/08/14 01:00:15;;;;;;;6.43;4.88;;;;;;;;;;4994895;28;20050;-49
2023/08/14 01:02:42;;;;;;;7.88;4.65;;;;;;;;;;4997293;28;20036;-48
2023/08/14 01:05:07;;;;;;;5.50;4.72;;;;;;;;;;4998262;28;20093;-47
2023/08/14 01:07:33;;;;;;;10.38;5.25;;;;;;;;;;4995838;28;20026;-45
2023/08/14 01:09:59;;;;;;;8.35;5.45;;;;;;;;;;4976959;28;20094;-47
2023/08/14 01:12:38;;;;;;;17.23;6.28;;;;;;;;;;4997642;28;20026;-48
2023/08/14 01:15:09;;;;;;;9.27;5.43;;;;;;;;;;4992893;28;20046;-47
2023/08/14 01:17:36;;;;;;;7.57;5.32;;;;;;;;;;4994146;28;20539;-46
2023/08/14 01:20:04;;;;;;;7.35;5.80;;;;;;;;;;4995163;28;20073;-49
2023/08/14 01:22:55;;;;;;;8.18;5.25;;;;;;;;;;4998326;28;20030;-46
2023/08/14 01:25:32;;;;;;;5.50;4.97;;;;;;;;;;4990706;28;20038;-47
2023/08/14 01:27:59;;;;;;;5.00;4.47;;;;;;;;;;4994140;28;20027;-49
2023/08/14 01:30:24;;;;;;;5.60;4.95;;;;;;;;;;4995874;28;20038;-48
2023/08/14 01:32:51;;;;;;;8.05;5.05;;;;;;;;;;5024930;28;20022;-48
2023/08/14 01:35:18;;;;;;;6.45;4.90;;;;;;;;;;4995126;28;20045;-52
2023/08/14 01:37:58;;;;;;;5.50;4.60;;;;;;;;;;4993373;28;20088;-50
2023/08/14 01:40:52;;;;;;;8.20;5.10;;;;;;;;;;4996795;28;20038;-49
2023/08/14 01:43:30;;;;;;;6.00;4.85;;;;;;;;;;4989824;28;20440;-47
2023/08/14 01:45:56;;;;;;;7.18;4.80;;;;;;;;;;4988990;28;20042;-46
2023/08/14 01:48:24;;;;;;;6.57;4.63;;;;;;;;;;4989432;28;20034;-47
2023/08/14 01:50:51;;;;;;;6.05;4.55;;;;;;;;;;4993234;28;20050;-46
2023/08/14 01:53:17;;;;;;;5.00;4.50;;;;;;;;;;4996264;28;20022;-45
2023/08/14 01:55:43;;;;;;;7.13;4.78;;;;;;;;;;5027163;28;20070;-49
2023/08/14 01:58:09;;;;;;;7.22;4.30;;;;;;;;;;4995081;28;20567;-50
2023/08/14 02:00:36;;;;;;;6.50;4.03;;;;;;;;;;4996895;28;20496;-51
2023/08/14 02:03:02;;;;;;;8.40;4.15;;;;;;;;;;4995787;28;20026;-46
2023/08/14 02:05:27;;;;;;;7.68;4.40;;;;;;;;;;4992267;28;20052;-47
2023/08/14 02:07:52;;;;;;;6.05;4.43;;;;;;;;;;5009277;28;20023;-49
2023/08/14 02:10:18;;;;;;;6.22;4.15;;;;;;;;;;5025951;28;20035;-47
2023/08/14 02:12:43;;;;;;;10.20;4.57;;;;;;;;;;4996036;28;20826;-47
2023/08/14 02:15:09;;;;;;;4.55;4.13;;;;;;;;;;5027461;28;20507;-45
2023/08/14 02:17:34;;;;;;;6.75;4.22;;;;;;;;;;4994322;28;20061;-49
2023/08/14 02:20:00;;;;;;;4.97;4.32;;;;;;;;;;4990627;28;20737;-48
2023/08/14 02:22:25;;;;;;;9.43;4.57;;;;;;;;;;4989742;28;20129;-47
2023/08/14 02:24:51;;;;;;;5.53;4.07;;;;;;;;;;5007023;28;20031;-46
2023/08/14 02:27:16;;;;;;;6.57;4.40;;;;;;;;;;4995099;28;20018;-47
2023/08/14 02:29:42;;;;;;;5.60;4.22;;;;;;;;;;4996208;28;20485;-49
2023/08/14 02:32:07;;;;;;;8.20;4.10;;;;;;;;;;4995848;28;20113;-48
2023/08/14 02:34:47;;;;;;;4.97;4.07;;;;;;;;;;4995083;28;20030;-49
2023/08/14 02:37:14;;;;;;;6.88;4.22;;;;;;;;;;5018272;28;20077;-48
2023/08/14 02:39:40;;;;;;;5.05;4.28;;;;;;;;;;4993178;28;20034;-47
2023/08/14 02:42:06;;;;;;;9.30;4.50;;;;;;;;;;4978255;28;20026;-52
2023/08/14 02:44:32;;;;;;;6.15;4.47;;;;;;;;;;4994521;28;20047;-46
2023/08/14 02:46:58;;;;;;;7.28;4.18;;;;;;;;;;4993356;28;20050;-46
2023/08/14 02:49:23;;;;;;;6.90;4.45;;;;;;;;;;4989800;28;20023;-47
2023/08/14 02:51:49;;;;;;;4.40;4.10;;;;;;;;;;4992860;28;20046;-46
2023/08/14 02:54:14;;;;;;;9.32;4.50;;;;;;;;;;4985006;28;20046;-48
2023/08/14 02:56:39;;;;;;;8.27;4.25;;;;;;;;;;4991020;28;20109;-50
2023/08/14 02:59:05;;;;;;;4.28;3.97;;;;;;;;;;4995255;28;20408;-47
2023/08/14 03:01:30;;;;;;;5.85;4.38;;;;;;;;;;4994661;28;20073;-46
2023/08/14 03:03:56;;;;;;;5.97;4.30;;;;;;;;;;4993227;28;20117;-48
2023/08/14 03:06:21;;;;;;;6.28;4.50;;;;;;;;;;4994777;28;20045;-48
2023/08/14 03:08:49;;;;;;;6.22;4.57;;;;;;;;;;4994997;28;20105;-51
2023/08/14 03:11:14;;;;;;;8.30;4.63;;;;;;;;;;4995790;28;20065;-48
2023/08/14 03:13:39;;;;;;;5.15;4.22;;;;;;;;;;4993486;28;20030;-47
2023/08/14 03:16:05;;;;;;;6.43;4.10;;;;;;;;;;4994410;28;20035;-48
2023/08/14 03:18:30;;;;;;;7.43;4.47;;;;;;;;;;4990842;28;20159;-47
2023/08/14 03:20:56;;;;;;;4.47;3.83;;;;;;;;;;4994216;28;20043;-51
2023/08/14 03:23:21;;;;;;;6.25;4.00;;;;;;;;;;4994273;28;20026;-47
2023/08/14 03:25:46;;;;;;;6.68;4.53;;;;;;;;;;4988026;28;20042;-47
2023/08/14 03:28:12;;;;;;;5.05;3.72;;;;;;;;;;5009795;28;20019;-46
2023/08/14 03:30:42;;;;;;;6.38;4.10;;;;;;;;;;4999461;28;20045;-48
2023/08/14 03:33:07;;;;;;;5.15;3.92;;;;;;;;;;4977276;28;20037;-48
2023/08/14 03:35:33;;;;;;;5.43;4.32;;;;;;;;;;4993714;28;20046;-46
2023/08/14 03:37:58;;;;;;;5.38;4.07;;;;;;;;;;4992903;28;20038;-48
2023/08/14 03:40:23;;;;;;;5.53;4.05;;;;;;;;;;4994612;28;20065;-48
2023/08/14 03:42:49;;;;;;;6.07;4.38;;;;;;;;;;4995767;28;20061;-49
2023/08/14 03:45:14;;;;;;;5.10;4.15;;;;;;;;;;4978944;28;20046;-47
2023/08/14 03:47:40;;;;;;;8.52;4.00;;;;;;;;;;4996451;28;20128;-49
2023/08/14 03:50:05;;;;;;;7.85;4.00;;;;;;;;;;4994535;28;20112;-46
2023/08/14 03:52:31;;;;;;;5.45;3.80;;;;;;;;;;4997787;28;20034;-47
2023/08/14 03:54:56;;;;;;;4.88;3.90;;;;;;;;;;4996657;28;20094;-46
2023/08/14 03:57:22;;;;;;;10.27;4.30;;;;;;;;;;4997441;28;20022;-49
2023/08/14 03:59:47;;;;;;;4.70;3.90;;;;;;;;;;4996851;28;20027;-47
2023/08/14 04:02:13;;;;;;;6.45;3.80;;;;;;;;;;5028601;28;20473;-46
2023/08/14 04:04:38;;;;;;;4.80;4.40;;;;;;;;;;4996251;28;20408;-43
2023/08/14 04:07:04;;;;;;;10.45;3.88;;;;;;;;;;4980540;28;20125;-47
2023/08/14 04:09:29;;;;;;;6.38;3.72;;;;;;;;;;4999111;28;20061;-48
2023/08/14 04:11:55;;;;;;;8.05;4.15;;;;;;;;;;4999202;28;20042;-46
2023/08/14 04:14:20;;;;;;;7.15;4.00;;;;;;;;;;4995169;28;20484;-49
2023/08/14 04:16:46;;;;;;;6.75;3.70;;;;;;;;;;4997502;28;20046;-50
2023/08/14 04:19:14;;;;;;;10.10;4.10;;;;;;;;;;4981123;28;20080;-47
2023/08/14 04:21:40;;;;;;;14.48;4.30;;;;;;;;;;4997632;28;20133;-50
2023/08/14 04:24:06;;;;;;;5.15;4.50;;;;;;;;;;4987691;28;20062;-48
2023/08/14 04:26:32;;;;;;;5.00;3.80;;;;;;;;;;4997395;28;20042;-47
2023/08/14 04:28:57;;;;;;;7.75;4.13;;;;;;;;;;4995655;28;20428;-49
2023/08/14 04:31:23;;;;;;;6.78;4.32;;;;;;;;;;4997598;28;20042;-47
2023/08/14 04:33:48;;;;;;;7.22;4.43;;;;;;;;;;4996878;28;20031;-48
2023/08/14 04:36:14;;;;;;;8.38;4.95;;;;;;;;;;5000108;28;20108;-49
2023/08/14 04:38:39;;;;;;;5.40;4.70;;;;;;;;;;4987267;28;20039;-46
2023/08/14 04:41:05;;;;;;;7.07;4.80;;;;;;;;;;4998116;28;20058;-51
2023/08/14 04:43:31;;;;;;;5.15;4.65;;;;;;;;;;4994439;28;20029;-50
2023/08/14 04:45:57;;;;;;;4.63;4.18;;;;;;;;;;4994858;28;20061;-46
2023/08/14 04:48:23;;;;;;;5.85;4.80;;;;;;;;;;4991621;28;20030;-49
2023/08/14 04:50:48;;;;;;;5.90;4.93;;;;;;;;;;4989547;28;20034;-46
2023/08/14 04:53:14;;;;;;;9.88;4.90;;;;;;;;;;4996318;28;20055;-48
2023/08/14 04:55:39;;;;;;;9.52;4.78;;;;;;;;;;5026011;28;20100;-47
2023/08/14 04:58:05;;;;;;;16.25;5.28;;;;;;;;;;4994960;28;20050;-49
2023/08/14 05:00:30;;;;;;;5.78;4.85;;;;;;;;;;4981843;28;20729;-49
2023/08/14 05:02:55;;;;;;;9.50;5.20;;;;;;;;;;4987207;28;20088;-50
2023/08/14 05:05:21;;;;;;;9.52;4.85;;;;;;;;;;4989021;28;20137;-51
2023/08/14 05:07:46;;;;;;;8.68;4.30;;;;;;;;;;4971788;28;20093;-49
2023/08/14 05:10:12;;;;;;;5.50;4.07;;;;;;;;;;4992374;28;20030;-48
2023/08/14 05:12:37;;;;;;;5.85;4.28;;;;;;;;;;4994503;28;20089;-47
2023/08/14 05:15:03;;;;;;;5.70;3.92;;;;;;;;;;4990947;28;20049;-50
2023/08/14 05:17:28;;;;;;;5.90;4.28;;;;;;;;;;4972796;28;20037;-47
2023/08/14 05:19:54;;;;;;;8.98;4.65;;;;;;;;;;4989438;28;20041;-48
2023/08/14 05:22:19;;;;;;;9.55;3.90;;;;;;;;;;4988570;28;20033;-46
2023/08/14 05:24:46;;;;;;;8.90;4.57;;;;;;;;;;4995623;28;20547;-49
2023/08/14 05:27:11;;;;;;;8.63;4.25;;;;;;;;;;4992192;28;20034;-51
2023/08/14 05:29:37;;;;;;;7.18;4.32;;;;;;;;;;4991591;28;20018;-48
2023/08/14 05:32:02;;;;;;;9.20;3.90;;;;;;;;;;5018578;28;20038;-48
2023/08/14 05:34:28;;;;;;;8.70;4.20;;;;;;;;;;4992222;28;20019;-52
2023/08/14 05:36:53;;;;;;;7.80;4.10;;;;;;;;;;4982899;28;20136;-47
2023/08/14 05:39:19;;;;;;;11.00;5.15;;;;;;;;;;4993715;28;20128;-47
2023/08/14 05:41:44;;;;;;;8.07;4.30;;;;;;;;;;4993413;28;20042;-47
2023/08/14 05:44:10;;;;;;;9.43;4.25;;;;;;;;;;5001147;28;20047;-46
2023/08/14 05:46:35;;;;;;;7.95;4.22;;;;;;;;;;4976245;28;20058;-48
2023/08/14 05:49:00;;;;;;;8.15;4.32;;;;;;;;;;4955982;28;20026;-49
2023/08/14 05:51:26;;;;;;;4.50;4.07;;;;;;;;;;4983642;28;20081;-50
2023/08/14 05:53:51;;;;;;;4.68;4.10;;;;;;;;;;4994437;28;20018;-48
2023/08/14 05:56:17;;;;;;;6.60;4.60;;;;;;;;;;4994946;28;20034;-46
2023/08/14 05:58:42;;;;;;;5.28;3.83;;;;;;;;;;4992273;28;20060;-48
2023/08/14 06:01:08;;;;;;;8.10;4.22;;;;;;;;;;4986133;28;20046;-53
2023/08/14 06:03:34;;;;;;;5.65;4.53;;;;;;;;;;4989579;28;20034;-49
2023/08/14 06:05:59;;;;;;;4.40;4.10;;;;;;;;;;4955357;28;20173;-51
2023/08/14 06:08:25;;;;;;;5.60;4.05;;;;;;;;;;4987126;28;20043;-47
2023/08/14 06:10:50;;;;;;;6.57;4.03;;;;;;;;;;5013490;28;20034;-51
2023/08/14 06:13:16;;;;;;;8.32;3.95;;;;;;;;;;4995546;28;20025;-48
2023/08/14 06:15:41;;;;;;;3.90;3.60;;;;;;;;;;4993218;28;20054;-48
2023/08/14 06:18:06;;;;;;;7.68;4.00;;;;;;;;;;4988582;28;20037;-48
2023/08/14 06:20:32;;;;;;;7.78;4.07;;;;;;;;;;4989479;28;20042;-49
2023/08/14 06:22:57;;;;;;;4.20;3.80;;;;;;;;;;4985054;28;20204;-49
2023/08/14 06:25:25;;;;;;;8.18;3.70;;;;;;;;;;4990929;28;20061;-49
2023/08/14 06:27:50;;;;;;;4.25;3.75;;;;;;;;;;4987276;28;20057;-48
2023/08/14 06:30:16;;;;;;;4.20;3.28;;;;;;;;;;4996435;28;20105;-50
2023/08/14 06:32:41;;;;;;;11.45;3.83;;;;;;;;;;4986732;28;20065;-49
2023/08/14 06:35:07;;;;;;;18.77;3.97;;;;;;;;;;5012079;28;20064;-50
2023/08/14 06:37:33;;;;;;;6.15;3.60;;;;;;;;;;4987957;28;20118;-50
2023/08/14 06:39:58;;;;;;;6.88;3.65;;;;;;;;;;4988976;28;20121;-46
2023/08/14 06:42:24;;;;;;;17.88;4.40;;;;;;;;;;4990852;28;20038;-48
2023/08/14 06:44:49;;;;;;;9.10;3.30;;;;;;;;;;4991517;28;20035;-50
2023/08/14 06:47:15;;;;;;;7.68;3.47;;;;;;;;;;4988774;28;20072;-49
2023/08/14 06:49:40;;;;;;;13.15;3.88;;;;;;;;;;4982662;28;20049;-51
2023/08/14 06:52:06;;;;;;;7.00;3.25;;;;;;;;;;4968314;28;20371;-48
2023/08/14 06:54:31;;;;;;;7.53;3.50;;;;;;;;;;4987896;28;20038;-52
2023/08/14 06:56:57;;;;;;;7.32;3.38;;;;;;;;;;4991721;28;20046;-51
2023/08/14 06:59:22;;;;;;;10.32;4.07;;;;;;;;;;4972027;28;20480;-50
2023/08/14 07:01:47;;;;;;;7.95;3.75;;;;;;;;;;5001099;28;20038;-46
2023/08/14 07:04:13;;;;;;;5.20;3.30;;;;;;;;;;4986095;28;20054;-49
2023/08/14 07:06:38;;;;;;;5.78;3.63;;;;;;;;;;4988367;28;20042;-49
2023/08/14 07:09:04;;;;;;;4.38;3.45;;;;;;;;;;4968965;28;20026;-50
2023/08/14 07:11:36;;;;;;;10.18;3.70;;;;;;;;;;4992047;28;20050;-50
2023/08/14 07:14:02;;;;;;;5.00;3.38;;;;;;;;;;4993628;28;20034;-48
2023/08/14 07:16:28;;;;;;;9.45;3.25;;;;;;;;;;4992677;28;20072;-47
2023/08/14 07:18:53;;;;;;;8.82;3.40;;;;;;;;;;5004656;28;20415;-49
2023/08/14 07:21:19;;;;;;;5.28;3.50;;;;;;;;;;4987849;28;20112;-49
2023/08/14 07:23:44;;;;;;;9.77;3.70;;;;;;;;;;4981268;28;20034;-48
2023/08/14 07:26:12;;;;;;;6.07;3.58;;;;;;;;;;4984924;28;20046;-55
2023/08/14 07:28:39;;;;;;;5.15;3.70;;;;;;;;;;4991945;28;20029;-55
2023/08/14 07:31:04;;;;;;;7.25;2.72;;;;;;;;;;4994362;28;20053;-48
2023/08/14 07:33:30;;;;;;;3.33;3.00;;;;;;;;;;4987649;28;20026;-50
2023/08/14 07:35:57;;;;;;;7.30;3.40;;;;;;;;;;4974699;28;20100;-49
2023/08/14 07:38:23;;;;;;;7.82;3.50;;;;;;;;;;4990047;28;20023;-52
2023/08/14 07:40:48;;;;;;;12.60;3.88;;;;;;;;;;4986971;28;20061;-49
2023/08/14 07:43:13;;;;;;;5.03;3.50;;;;;;;;;;4992824;28;20050;-49
2023/08/14 07:45:39;;;;;;;4.72;3.47;;;;;;;;;;4995242;28;20529;-49
2023/08/14 07:48:04;;;;;;;3.55;3.25;;;;;;;;;;4995521;28;20021;-50
2023/08/14 07:50:30;;;;;;;6.95;3.75;;;;;;;;;;4977185;28;20069;-48
2023/08/14 07:52:55;;;;;;;9.65;3.83;;;;;;;;;;4989763;28;20129;-49
2023/08/14 07:55:21;;;;;;;5.47;3.58;;;;;;;;;;4993190;28;20042;-49
2023/08/14 07:57:46;;;;;;;6.15;3.55;;;;;;;;;;5002472;28;20029;-47
2023/08/14 08:00:13;;;;;;;7.22;3.78;;;;;;;;;;4987918;28;20043;-51
2023/08/14 08:02:39;;;;;;;6.03;3.58;;;;;;;;;;4984347;28;20064;-49
2023/08/14 08:05:05;;;;;;;3.85;3.17;;;;;;;;;;4982342;28;20042;-46
2023/08/14 08:07:30;;;;;;;7.82;4.25;;;;;;;;;;4997815;28;20030;-48
2023/08/14 08:09:56;;;;;;;10.40;4.00;;;;;;;;;;4993753;28;20031;-49
2023/08/14 08:12:21;;;;;;;9.00;4.13;;;;;;;;;;4995866;28;20030;-51
2023/08/14 08:14:47;;;;;;;6.93;4.00;;;;;;;;;;4996787;28;20084;-49
2023/08/14 08:17:12;;;;;;;8.07;4.07;;;;;;;;;;5012302;28;20030;-47
2023/08/14 08:19:37;;;;;;;7.47;4.07;;;;;;;;;;4993784;28;20081;-45
2023/08/14 08:22:03;;;;;;;4.95;3.90;;;;;;;;;;4994658;28;20022;-50
2023/08/14 08:24:28;;;;;;;8.00;4.25;;;;;;;;;;4994865;28;20049;-48
2023/08/14 08:26:54;;;;;;;6.47;3.97;;;;;;;;;;4993488;28;20048;-49
2023/08/14 08:29:19;;;;;;;6.93;3.80;;;;;;;;;;4994491;28;20088;-50
2023/08/14 08:31:44;;;;;;;8.43;4.07;;;;;;;;;;4996575;28;20057;-47
2023/08/14 08:34:10;;;;;;;5.25;4.18;;;;;;;;;;4996771;28;20030;-51
2023/08/14 08:36:35;;;;;;;6.13;4.18;;;;;;;;;;4993928;28;20456;-47
2023/08/14 08:39:01;;;;;;;10.48;4.20;;;;;;;;;;4989521;28;20104;-48
2023/08/14 08:41:35;;;;;;;4.97;3.42;;;;;;;;;;4992541;28;20034;-48
2023/08/14 08:44:31;;;;;;;5.65;4.00;;;;;;;;;;4988723;28;20106;-48
2023/08/14 08:47:06;;;;;;;9.32;3.60;;;;;;;;;;4990138;28;20042;-46
2023/08/14 08:49:32;;;;;;;9.82;3.90;;;;;;;;;;4992086;28;20093;-47
2023/08/14 08:51:58;;;;;;;6.15;3.58;;;;;;;;;;4989224;28;20027;-50
2023/08/14 08:54:25;;;;;;;5.28;3.72;;;;;;;;;;4993958;28;20032;-49
2023/08/14 08:56:51;;;;;;;10.18;3.60;;;;;;;;;;4990279;28;20030;-49
2023/08/14 08:59:18;;;;;;;11.80;3.65;;;;;;;;;;5000427;28;20033;-50
2023/08/14 09:01:45;;;;;;;6.75;3.65;;;;;;;;;;4979650;28;20544;-52
2023/08/14 09:04:10;;;;;;;6.18;3.60;;;;;;;;;;5009949;28;20101;-48
2023/08/14 09:06:36;;;;;;;10.43;3.25;;;;;;;;;;4997668;28;20037;-47
2023/08/14 09:09:02;;;;;;;9.05;3.75;;;;;;;;;;4996146;28;20014;-48
2023/08/14 09:11:28;;;;;;;8.75;3.65;;;;;;;;;;4993441;28;20121;-47
2023/08/14 09:13:55;;;;;;;7.95;4.10;;;;;;;;;;4975840;28;20042;-49
2023/08/14 09:16:20;;;;;;;7.97;4.15;;;;;;;;;;4996398;28;20045;-46
2023/08/14 09:18:46;;;;;;;4.82;3.92;;;;;;;;;;4978998;28;20030;-51
2023/08/14 09:21:13;;;;;;;4.60;3.40;;;;;;;;;;4995940;28;20065;-47
2023/08/14 09:23:38;;;;;;;7.00;3.50;;;;;;;;;;5007855;28;20037;-45
2023/08/14 09:26:04;;;;;;;12.57;4.60;;;;;;;;;;4993850;28;20038;-49
2023/08/14 09:28:30;;;;;;;8.68;3.60;;;;;;;;;;4994696;28;20073;-51
2023/08/14 09:31:10;;;;;;;9.85;4.60;;;;;;;;;;4991853;28;20041;-48
2023/08/14 09:33:38;;;;;;;5.10;4.28;;;;;;;;;;4991414;28;20472;-48
2023/08/14 09:36:03;;;;;;;9.50;3.50;;;;;;;;;;5008768;28;20048;-50
2023/08/14 09:38:31;;;;;;;7.55;3.83;;;;;;;;;;4992866;28;20109;-47
2023/08/14 09:41:01;;;;;;;10.48;3.92;;;;;;;;;;4994976;28;20392;-50
2023/08/14 09:43:28;;;;;;;5.03;3.30;;;;;;;;;;4989217;28;20037;-50
2023/08/14 09:45:57;;;;;;;6.18;3.47;;;;;;;;;;4989435;28;20038;-48
2023/08/14 09:48:37;;;;;;;10.65;3.55;;;;;;;;;;4994101;28;20014;-45
2023/08/14 09:51:03;;;;;;;7.70;4.50;;;;;;;;;;4973763;28;20050;-47
2023/08/14 09:53:28;;;;;;;10.32;3.40;;;;;;;;;;4990952;28;20043;-48
2023/08/14 09:55:54;;;;;;;4.63;2.80;;;;;;;;;;4986909;28;20046;-51
2023/08/14 09:58:20;;;;;;;7.00;3.45;;;;;;;;;;4992024;28;20062;-50
2023/08/14 10:00:47;;;;;;;6.30;3.10;;;;;;;;;;4995700;28;20053;-46
2023/08/14 10:03:14;;;;;;;5.47;2.90;;;;;;;;;;4978180;28;20053;-46
2023/08/14 10:05:40;;;;;;;6.60;3.58;;;;;;;;;;4990897;28;20049;-48
2023/08/14 10:08:07;;;;;;;8.75;3.35;;;;;;;;;;4977299;28;20053;-50
2023/08/14 10:10:35;;;;;;;4.55;3.25;;;;;;;;;;4993941;28;20044;-52
2023/08/14 10:13:05;;;;;;;7.68;2.95;;;;;;;;;;4995613;28;20792;-50
2023/08/14 10:15:41;;;;;;;9.82;3.35;;;;;;;;;;4991665;28;20101;-51
2023/08/14 10:18:14;;;;;;;5.00;3.38;;;;;;;;;;4994436;28;20034;-48
2023/08/14 10:20:41;;;;;;;9.70;3.53;;;;;;;;;;4991768;28;20593;-48
2023/08/14 10:23:08;;;;;;;8.07;3.88;;;;;;;;;;4975963;28;20021;-49
2023/08/14 10:25:36;;;;;;;4.35;3.33;;;;;;;;;;4991250;28;20038;-48
2023/08/14 10:28:03;;;;;;;9.75;3.60;;;;;;;;;;4984536;28;20421;-46
2023/08/14 10:30:29;;;;;;;10.15;3.50;;;;;;;;;;4973215;28;20102;-50
2023/08/14 10:32:55;;;;;;;6.20;3.55;;;;;;;;;;5008566;28;20041;-50
2023/08/14 10:35:22;;;;;;;8.55;3.58;;;;;;;;;;4988748;28;20038;-47
2023/08/14 10:37:48;;;;;;;12.05;4.18;;;;;;;;;;4989841;28;20622;-48
2023/08/14 10:40:19;;;;;;;5.63;3.15;;;;;;;;;;4993393;28;20134;-48
2023/08/14 10:42:46;;;;;;;9.63;3.40;;;;;;;;;;4987771;28;20065;-47
2023/08/14 10:45:16;;;;;;;4.65;3.03;;;;;;;;;;4991968;28;20038;-47
2023/08/14 10:47:42;;;;;;;5.72;3.20;;;;;;;;;;5023403;28;20030;-48
2023/08/14 10:50:22;;;;;;;12.27;3.78;;;;;;;;;;5023365;28;20077;-48
2023/08/14 10:52:50;;;;;;;5.07;2.67;;;;;;;;;;4977557;28;20707;-49
2023/08/14 10:55:35;;;;;;;6.35;2.55;;;;;;;;;;4986702;28;20634;-50
2023/08/14 10:58:00;;;;;;;6.22;2.60;;;;;;;;;;4985870;28;20783;-47
2023/08/14 11:00:26;;;;;;;5.70;2.90;;;;;;;;;;4978880;28;20377;-50
2023/08/14 11:03:05;;;;;;;5.90;3.13;;;;;;;;;;4999649;28;20038;-48
2023/08/14 11:05:38;;;;;;;9.93;2.92;;;;;;;;;;5006629;28;20049;-53
2023/08/14 11:08:06;;;;;;;4.72;3.10;;;;;;;;;;4997810;28;20097;-51
2023/08/14 11:10:33;;;;;;;5.00;3.00;;;;;;;;;;4977022;28;20038;-50
2023/08/14 11:13:00;;;;;;;4.93;2.83;;;;;;;;;;5005946;28;20057;-50
2023/08/14 11:15:25;;;;;;;6.72;2.50;;;;;;;;;;4957934;28;20088;-48
2023/08/14 11:17:51;;;;;;;8.23;3.40;;;;;;;;;;4988018;28;20042;-50
2023/08/14 11:20:16;;;;;;;6.45;2.80;;;;;;;;;;4988793;28;20082;-50
2023/08/14 11:22:45;;;;;;;5.28;2.78;;;;;;;;;;4990657;28;20042;-49
2023/08/14 11:25:15;;;;;;;8.23;2.85;;;;;;;;;;4983902;28;20057;-50
2023/08/14 11:27:47;;;;;;;7.93;2.55;;;;;;;;;;4995611;28;20031;-51
2023/08/14 11:30:12;;;;;;;10.60;2.90;;;;;;;;;;4993355;28;20570;-53
2023/08/14 11:32:38;;;;;;;6.72;2.65;;;;;;;;;;4991736;28;20117;-46
2023/08/14 11:35:05;;;;;;;6.88;2.70;;;;;;;;;;4990468;28;20100;-47
2023/08/14 11:37:31;;;;;;;9.13;2.72;;;;;;;;;;4987099;28;20526;-47
2023/08/14 11:40:04;;;;;;;6.47;2.50;;;;;;;;;;4990675;28;20030;-46
2023/08/14 11:42:31;;;;;;;9.93;2.65;;;;;;;;;;4991433;28;20061;-44
2023/08/14 11:44:57;;;;;;;4.78;2.58;;;;;;;;;;4991872;28;20086;-44
2023/08/14 11:47:22;;;;;;;5.13;2.53;;;;;;;;;;4984327;28;20500;-44
2023/08/14 11:49:50;;;;;;;6.85;2.80;;;;;;;;;;4989127;28;20081;-44
2023/08/14 11:52:15;;;;;;;9.80;3.03;;;;;;;;;;4990945;28;20044;-44
2023/08/14 11:54:44;;;;;;;10.20;2.85;;;;;;;;;;4987327;28;20031;-48
2023/08/14 11:57:13;;;;;;;6.55;2.80;;;;;;;;;;4995297;28;20056;-43
2023/08/14 11:59:38;;;;;;;7.35;2.80;;;;;;;;;;4990022;28;20065;-45
2023/08/14 12:02:04;;;;;;;7.43;2.80;;;;;;;;;;4991091;28;20458;-44
2023/08/14 12:04:30;;;;;;;13.75;3.30;;;;;;;;;;4989919;28;20034;-43
2023/08/14 12:06:55;;;;;;;9.32;3.22;;;;;;;;;;4995353;28;20085;-44
2023/08/14 12:09:27;;;;;;;8.48;3.20;;;;;;;;;;4993592;28;20084;-46
2023/08/14 12:11:52;;;;;;;5.65;2.40;;;;;;;;;;4993326;28;20047;-47
2023/08/14 12:14:18;;;;;;;8.32;2.60;;;;;;;;;;4993395;28;20034;-47
2023/08/14 12:16:44;;;;;;;5.45;3.38;;;;;;;;;;4991276;28;20184;-45
2023/08/14 12:19:10;;;;;;;7.13;3.45;;;;;;;;;;4988332;28;20030;-45
2023/08/14 12:21:35;;;;;;;6.80;3.47;;;;;;;;;;4989413;28;20027;-49
2023/08/14 12:24:01;;;;;;;9.18;3.28;;;;;;;;;;4994289;28;20038;-49
2023/08/14 12:26:27;;;;;;;4.97;3.30;;;;;;;;;;4996478;28;20042;-44
2023/08/14 12:28:52;;;;;;;4.90;3.40;;;;;;;;;;4990889;28;20019;-44
2023/08/14 12:31:18;;;;;;;6.20;3.72;;;;;;;;;;4996653;28;20395;-44
2023/08/14 12:33:43;;;;;;;8.95;3.28;;;;;;;;;;4976488;28;20057;-44
2023/08/14 12:36:12;;;;;;;4.70;2.33;;;;;;;;;;4992495;28;20089;-48
2023/08/14 12:38:38;;;;;;;3.97;2.10;;;;;;;;;;4996308;28;20113;-44
2023/08/14 12:41:04;;;;;;;5.78;2.22;;;;;;;;;;4994813;28;20078;-43
2023/08/14 12:43:30;;;;;;;5.28;2.25;;;;;;;;;;4994799;28;20030;-47
2023/08/14 12:45:55;;;;;;;6.13;2.30;;;;;;;;;;4959288;28;20101;-45
2023/08/14 12:48:21;;;;;;;3.13;2.10;;;;;;;;;;4990151;28;20031;-46
2023/08/14 12:50:46;;;;;;;3.22;1.58;;;;;;;;;;4993749;28;20412;-44
2023/08/14 12:53:16;;;;;;;5.95;2.25;;;;;;;;;;4977873;28;20037;-50
2023/08/14 12:55:43;;;;;;;4.45;2.35;;;;;;;;;;4997507;28;20054;-46
2023/08/14 12:58:08;;;;;;;5.15;2.28;;;;;;;;;;4995756;28;20034;-49
2023/08/14 13:00:34;;;;;;;8.25;2.53;;;;;;;;;;4992384;28;20049;-46
2023/08/14 13:02:59;;;;;;;2.90;2.03;;;;;;;;;;4994047;28;20034;-44
2023/08/14 13:05:25;;;;;;;8.15;2.30;;;;;;;;;;5012783;28;20041;-49
2023/08/14 13:07:50;;;;;;;7.20;2.00;;;;;;;;;;4996029;28;20042;-44
2023/08/14 13:10:16;;;;;;;3.22;2.10;;;;;;;;;;4993058;28;20554;-45
2023/08/14 13:12:41;;;;;;;7.55;1.60;;;;;;;;;;4993787;28;20554;-44
2023/08/14 13:15:07;;;;;;;3.80;2.10;;;;;;;;;;4991803;28;20034;-48
2023/08/14 13:17:33;;;;;;;4.20;1.77;;;;;;;;;;4992354;28;20029;-43
2023/08/14 13:19:58;;;;;;;6.57;2.25;;;;;;;;;;4993175;28;20042;-44
2023/08/14 13:22:23;;;;;;;2.78;2.00;;;;;;;;;;4994444;28;20026;-45
2023/08/14 13:24:49;;;;;;;2.53;1.70;;;;;;;;;;4977703;28;20393;-47
2023/08/14 13:27:14;;;;;;;7.03;2.25;;;;;;;;;;4980551;28;20108;-48
2023/08/14 13:29:40;;;;;;;3.70;1.85;;;;;;;;;;4992323;28;20026;-43
2023/08/14 13:32:05;;;;;;;5.53;2.00;;;;;;;;;;4992190;28;20042;-46
2023/08/14 13:34:31;;;;;;;4.20;2.10;;;;;;;;;;4994470;28;20085;-45
2023/08/14 13:36:56;;;;;;;3.03;1.80;;;;;;;;;;4990824;28;20142;-44
2023/08/14 13:39:22;;;;;;;7.57;2.08;;;;;;;;;;4962679;28;20038;-46
2023/08/14 13:41:47;;;;;;;1.75;1.55;;;;;;;;;;4992743;28;20034;-44
2023/08/14 13:44:12;;;;;;;2.08;1.75;;;;;;;;;;4996816;28;20029;-46
2023/08/14 13:46:38;;;;;;;2.15;1.63;;;;;;;;;;4979724;28;20515;-43
2023/08/14 13:49:06;;;;;;;2.15;1.67;;;;;;;;;;4973079;28;20495;-45
2023/08/14 13:51:32;;;;;;;2.35;1.63;;;;;;;;;;4994353;28;20050;-46
2023/08/14 13:53:58;;;;;;;4.60;2.10;;;;;;;;;;4991349;28;20444;-44
2023/08/14 13:56:23;;;;;;;4.15;2.20;;;;;;;;;;5027339;28;20042;-45
2023/08/14 13:58:49;;;;;;;6.18;1.80;;;;;;;;;;4994084;28;20037;-44
2023/08/14 14:01:14;;;;;;;7.88;2.20;;;;;;;;;;4978039;28;20104;-45
2023/08/14 14:03:40;;;;;;;3.75;1.95;;;;;;;;;;4992520;28;20064;-44
2023/08/14 14:06:05;;;;;;;4.10;2.08;;;;;;;;;;4993979;28;20041;-45
2023/08/14 14:08:30;;;;;;;5.90;2.17;;;;;;;;;;4994871;28;20035;-46
2023/08/14 14:10:56;;;;;;;3.03;1.98;;;;;;;;;;4994385;28;20105;-50
2023/08/14 14:13:21;;;;;;;4.20;1.90;;;;;;;;;;4978612;28;20037;-43
2023/08/14 14:15:47;;;;;;;2.70;1.83;;;;;;;;;;4993925;28;20034;-43
2023/08/14 14:18:12;;;;;;;6.13;1.92;;;;;;;;;;4992004;28;20030;-47
2023/08/14 14:20:38;;;;;;;3.67;2.08;;;;;;;;;;4975299;28;20030;-47
2023/08/14 14:23:03;;;;;;;5.38;2.03;;;;;;;;;;4983618;28;20045;-46
2023/08/14 14:25:29;;;;;;;2.35;1.90;;;;;;;;;;4994443;28;20061;-45
2023/08/14 14:27:54;;;;;;;5.72;1.98;;;;;;;;;;4978548;28;20026;-45
2023/08/14 14:30:20;;;;;;;3.17;2.00;;;;;;;;;;4994841;28;20515;-45
2023/08/14 14:32:45;;;;;;;6.18;2.38;;;;;;;;;;4995663;28;20373;-48
2023/08/14 14:35:13;;;;;;;3.40;2.17;;;;;;;;;;4996338;28;20042;-44
2023/08/14 14:37:39;;;;;;;1.75;1.63;;;;;;;;;;4992890;28;20037;-44